Time;durP1;ratioP1;P1;durP2;ratioP2;P2;SDS_P1;SDS_P2;PMS_P1;PMS_P2;Temp;Humidity;BMP_temperature;BMP_pressure;BME280_temperature;BME280_humidity;BME280_pressure;Samples;Min_cycle;Max_cycle;Signal;HPM_P1;HPM_P2
2023/11/27 00:00:16;;;;;;;21.70;19.80;;;3.00;96.40;;;;;;4866215;29;20187;-39
2023/11/27 00:02:41;;;;;;;23.30;21.10;;;2.90;99.90;;;;;;4866268;29;20190;-39
2023/11/27 00:05:07;;;;;;;21.80;20.00;;;2.90;99.90;;;;;;4867921;29;20195;-40
2023/11/27 00:07:33;;;;;;;22.77;20.83;;;2.90;99.90;;;;;;4860443;29;20211;-40
2023/11/27 00:09:59;;;;;;;23.10;20.90;;;2.90;99.90;;;;;;4860417;29;20206;-38
2023/11/27 00:12:24;;;;;;;22.53;20.33;;;2.90;99.90;;;;;;4862920;29;20316;-40
2023/11/27 00:14:50;;;;;;;23.20;21.30;;;2.90;99.90;;;;;;4857524;29;20232;-39
2023/11/27 00:17:16;;;;;;;23.50;21.60;;;2.90;99.90;;;;;;4851770;29;20211;-38
2023/11/27 00:19:41;;;;;;;23.40;21.20;;;2.90;99.90;;;;;;4859603;29;20193;-39
2023/11/27 00:22:07;;;;;;;24.23;22.07;;;2.90;99.90;;;;;;4854637;29;20276;-40
2023/11/27 00:24:33;;;;;;;24.97;22.67;;;2.90;99.90;;;;;;4865460;29;20203;-38
2023/11/27 00:26:58;;;;;;;24.73;22.33;;;2.90;99.90;;;;;;4861953;29;20198;-39
2023/11/27 00:29:24;;;;;;;23.33;21.37;;;2.90;99.90;;;;;;4857379;29;20210;-40
2023/11/27 00:31:49;;;;;;;24.90;22.63;;;2.90;99.90;;;;;;4848214;29;20256;-39
2023/11/27 00:34:16;;;;;;;23.37;21.17;;;2.90;99.90;;;;;;4855765;29;20203;-39
2023/11/27 00:36:42;;;;;;;23.98;21.77;;;2.90;99.90;;;;;;4857719;29;20319;-39
2023/11/27 00:39:08;;;;;;;22.57;20.30;;;2.90;99.90;;;;;;4866354;29;20210;-40
2023/11/27 00:41:35;;;;;;;23.40;21.20;;;2.90;99.90;;;;;;4860758;29;20240;-39
2023/11/27 00:44:01;;;;;;;23.75;21.90;;;2.90;99.90;;;;;;4867938;29;20219;-40
2023/11/27 00:46:27;;;;;;;24.13;21.85;;;2.80;99.90;;;;;;4852971;29;20257;-40
2023/11/27 00:48:52;;;;;;;23.50;21.40;;;2.80;99.90;;;;;;4855746;29;20199;-40
2023/11/27 00:51:18;;;;;;;23.83;21.83;;;2.80;99.90;;;;;;4863555;29;20875;-39
2023/11/27 00:53:44;;;;;;;23.50;21.40;;;2.90;99.90;;;;;;4850729;29;20199;-40
2023/11/27 00:56:09;;;;;;;23.10;21.17;;;2.80;99.90;;;;;;4836319;29;20290;-39
2023/11/27 00:58:35;;;;;;;22.70;20.70;;;2.90;99.90;;;;;;4857717;29;20314;-39
2023/11/27 01:01:02;;;;;;;22.63;20.73;;;2.90;99.90;;;;;;4838929;29;20202;-39
2023/11/27 01:03:27;;;;;;;23.17;21.15;;;2.90;99.90;;;;;;4859251;29;20191;-38
2023/11/27 01:05:56;;;;;;;22.67;20.60;;;2.90;99.90;;;;;;4859947;29;20209;-40
2023/11/27 01:08:21;;;;;;;23.42;21.38;;;2.90;99.90;;;;;;4858377;29;20218;-39
2023/11/27 01:10:48;;;;;;;23.63;21.50;;;2.90;99.90;;;;;;4866098;29;20229;-38
2023/11/27 01:13:14;;;;;;;25.70;23.10;;;2.90;99.90;;;;;;4851912;29;20749;-39
2023/11/27 01:15:40;;;;;;;24.45;22.15;;;2.90;99.90;;;;;;4853779;29;20199;-39
2023/11/27 01:18:06;;;;;;;24.15;21.95;;;2.90;99.90;;;;;;4860666;29;20308;-39
2023/11/27 01:20:32;;;;;;;25.17;22.92;;;2.90;99.90;;;;;;4867812;29;20556;-38
2023/11/27 01:22:58;;;;;;;23.55;21.40;;;2.90;99.90;;;;;;4862137;29;20230;-38
2023/11/27 01:25:24;;;;;;;22.87;20.83;;;2.90;99.90;;;;;;4865795;29;20254;-38
2023/11/27 01:27:49;;;;;;;25.30;22.90;;;2.90;99.90;;;;;;4861616;29;20231;-40
2023/11/27 01:30:18;;;;;;;25.00;22.57;;;2.90;99.90;;;;;;4853328;29;20380;-39
2023/11/27 01:32:47;;;;;;;25.20;22.90;;;2.80;99.90;;;;;;4858333;29;20769;-39
2023/11/27 01:35:12;;;;;;;24.25;21.90;;;2.80;99.90;;;;;;4861698;29;20878;-39
2023/11/27 01:37:38;;;;;;;25.60;23.37;;;2.80;99.90;;;;;;4847089;29;20225;-39
2023/11/27 01:40:04;;;;;;;25.17;22.70;;;2.80;99.90;;;;;;4864532;29;20218;-40
2023/11/27 01:42:30;;;;;;;25.87;23.37;;;2.80;99.90;;;;;;4861347;29;20187;-40
2023/11/27 01:44:55;;;;;;;25.60;22.97;;;2.80;99.90;;;;;;4848966;29;20960;-40
2023/11/27 01:47:24;;;;;;;26.10;23.87;;;2.60;99.90;;;;;;4862606;29;20240;-40
2023/11/27 01:49:50;;;;;;;26.00;23.45;;;2.60;99.90;;;;;;4867173;29;20461;-39
2023/11/27 01:52:17;;;;;;;26.50;23.87;;;2.60;99.90;;;;;;4864631;29;20609;-39
2023/11/27 01:54:43;;;;;;;24.92;22.42;;;2.50;99.90;;;;;;4862627;29;20248;-39
2023/11/27 01:57:11;;;;;;;26.52;23.73;;;2.50;99.90;;;;;;4864536;29;20239;-39
2023/11/27 01:59:37;;;;;;;26.17;23.60;;;2.50;99.90;;;;;;4866211;29;20230;-39
2023/11/27 02:02:03;;;;;;;24.90;22.40;;;2.50;99.90;;;;;;4849290;29;20303;-40
2023/11/27 02:04:28;;;;;;;24.60;22.40;;;2.40;99.90;;;;;;4867091;29;20548;-39
2023/11/27 02:06:54;;;;;;;25.20;22.70;;;2.40;99.90;;;;;;4862582;29;21325;-39
2023/11/27 02:09:19;;;;;;;24.90;22.50;;;2.40;99.90;;;;;;4866924;29;20193;-39
2023/11/27 02:11:50;;;;;;;25.27;22.70;;;2.40;99.90;;;;;;4848002;29;20230;-39
2023/11/27 02:14:16;;;;;;;26.02;23.67;;;2.30;99.90;;;;;;4852238;29;20241;-39
2023/11/27 02:16:43;;;;;;;26.45;23.75;;;2.30;99.90;;;;;;4862436;29;20728;-39
2023/11/27 02:19:10;;;;;;;25.17;22.80;;;2.30;99.90;;;;;;4855955;29;21222;-39
2023/11/27 02:21:35;;;;;;;25.83;23.42;;;2.30;99.90;;;;;;4865836;29;20193;-39
2023/11/27 02:24:01;;;;;;;27.57;24.87;;;2.30;99.90;;;;;;4859377;29;20284;-38
2023/11/27 02:26:26;;;;;;;26.77;23.97;;;2.30;99.90;;;;;;4854873;29;20284;-39
2023/11/27 02:28:52;;;;;;;27.40;24.50;;;2.40;99.90;;;;;;4861126;29;20193;-40
2023/11/27 02:31:17;;;;;;;27.40;24.77;;;2.40;99.90;;;;;;4865978;29;20774;-39
2023/11/27 02:33:43;;;;;;;25.60;23.37;;;2.40;99.90;;;;;;4857909;29;21261;-39
2023/11/27 02:36:09;;;;;;;26.47;23.87;;;2.30;99.90;;;;;;4850035;29;20276;-39
2023/11/27 02:38:36;;;;;;;25.27;22.97;;;2.40;99.90;;;;;;4859373;29;20246;-39
2023/11/27 02:41:02;;;;;;;26.48;23.88;;;2.40;99.90;;;;;;4866535;29;20838;-39
2023/11/27 02:43:28;;;;;;;25.88;23.15;;;2.40;99.90;;;;;;4852894;29;20193;-39
2023/11/27 02:45:55;;;;;;;32.38;25.45;;;2.30;99.90;;;;;;4862039;29;20275;-39
2023/11/27 02:48:21;;;;;;;26.35;23.85;;;2.30;99.90;;;;;;4859990;29;20204;-40
2023/11/27 02:50:48;;;;;;;25.75;23.15;;;2.40;99.90;;;;;;4860234;29;20669;-38
2023/11/27 02:53:14;;;;;;;27.40;24.67;;;2.30;99.90;;;;;;4851035;29;20325;-40
2023/11/27 02:55:40;;;;;;;24.97;22.40;;;2.40;99.90;;;;;;4864471;29;20445;-40
2023/11/27 02:58:09;;;;;;;25.77;23.37;;;2.40;99.90;;;;;;4861074;29;20531;-39
2023/11/27 03:00:35;;;;;;;26.45;23.95;;;2.40;99.90;;;;;;4854514;29;20581;-39
2023/11/27 03:03:01;;;;;;;24.80;22.43;;;2.30;99.90;;;;;;4864823;29;20192;-40
2023/11/27 03:05:26;;;;;;;24.42;22.25;;;2.30;99.90;;;;;;4865878;29;20243;-39
2023/11/27 03:07:52;;;;;;;26.03;23.50;;;2.30;99.90;;;;;;4866489;29;21005;-39
2023/11/27 03:10:18;;;;;;;24.20;21.90;;;2.30;99.90;;;;;;4862413;29;20189;-43
2023/11/27 03:12:43;;;;;;;24.90;22.50;;;2.20;99.90;;;;;;4851340;29;20269;-40
2023/11/27 03:15:10;;;;;;;24.37;21.87;;;2.10;99.90;;;;;;4857638;29;20195;-40
2023/11/27 03:17:37;;;;;;;23.52;21.33;;;2.10;99.90;;;;;;4845457;29;20225;-40
2023/11/27 03:20:04;;;;;;;23.60;21.23;;;2.10;99.90;;;;;;4861343;29;20199;-40
2023/11/27 03:22:32;;;;;;;26.13;23.58;;;2.00;99.90;;;;;;4866132;29;20227;-43
2023/11/27 03:24:58;;;;;;;24.60;22.25;;;2.00;99.90;;;;;;4859719;29;20227;-40
2023/11/27 03:27:23;;;;;;;26.67;23.10;;;2.00;99.90;;;;;;4857638;29;20992;-40
2023/11/27 03:29:49;;;;;;;24.13;21.83;;;1.90;99.90;;;;;;4853594;29;20387;-39
2023/11/27 03:32:15;;;;;;;24.37;22.07;;;1.90;99.90;;;;;;4865711;29;20226;-39
2023/11/27 03:34:43;;;;;;;25.80;23.27;;;1.80;99.90;;;;;;4862937;29;20766;-39
2023/11/27 03:37:09;;;;;;;24.92;22.52;;;1.80;99.90;;;;;;4869502;29;20307;-39
2023/11/27 03:39:35;;;;;;;24.80;22.60;;;1.80;99.90;;;;;;4868884;29;20185;-39
2023/11/27 03:42:01;;;;;;;24.65;22.25;;;1.80;99.90;;;;;;4859372;29;20492;-41
2023/11/27 03:44:27;;;;;;;23.63;21.37;;;1.80;99.90;;;;;;4856712;29;20196;-39
2023/11/27 03:46:52;;;;;;;28.00;23.47;;;1.80;99.90;;;;;;4864907;29;20195;-39
2023/11/27 03:49:18;;;;;;;23.67;21.47;;;1.80;99.90;;;;;;4862036;29;20315;-39
2023/11/27 03:51:43;;;;;;;25.10;22.43;;;1.80;99.90;;;;;;4864185;29;20193;-40
2023/11/27 03:54:11;;;;;;;25.67;23.17;;;1.80;99.90;;;;;;4864111;29;20222;-39
2023/11/27 03:56:37;;;;;;;27.60;22.48;;;1.80;99.90;;;;;;4851718;29;20201;-41
2023/11/27 03:59:03;;;;;;;24.00;21.23;;;1.80;99.90;;;;;;4865127;29;21020;-40
2023/11/27 04:01:28;;;;;;;24.53;21.93;;;1.90;99.90;;;;;;4861083;29;20235;-39
2023/11/27 04:03:54;;;;;;;26.20;23.47;;;1.80;99.90;;;;;;4867213;29;20603;-39
2023/11/27 04:06:34;;;;;;;23.23;20.93;;;1.90;99.90;;;;;;4859779;29;20184;-39
2023/11/27 04:09:00;;;;;;;23.38;21.08;;;1.90;99.90;;;;;;4866695;29;20421;-39
2023/11/27 04:11:27;;;;;;;21.70;19.70;;;1.90;99.90;;;;;;4856423;29;20835;-39
2023/11/27 04:13:55;;;;;;;22.50;20.48;;;1.90;99.90;;;;;;4866262;29;20432;-40
2023/11/27 04:16:21;;;;;;;22.75;20.60;;;1.90;99.90;;;;;;4860558;29;20643;-40
2023/11/27 04:18:48;;;;;;;24.07;21.70;;;1.90;99.90;;;;;;4863688;29;20312;-39
2023/11/27 04:21:17;;;;;;;22.80;20.60;;;2.00;99.90;;;;;;4865148;29;20444;-40
2023/11/27 04:23:47;;;;;;;22.98;20.58;;;1.90;99.90;;;;;;4868952;29;20231;-40
2023/11/27 04:26:14;;;;;;;22.73;20.52;;;2.00;99.90;;;;;;4863966;29;20196;-40
2023/11/27 04:28:40;;;;;;;23.95;21.40;;;2.00;99.90;;;;;;4859865;29;20188;-40
2023/11/27 04:31:06;;;;;;;22.95;20.75;;;2.00;99.90;;;;;;4857168;29;20190;-39
2023/11/27 04:33:33;;;;;;;23.13;20.75;;;2.00;99.90;;;;;;4850113;29;20205;-39
2023/11/27 04:35:59;;;;;;;23.95;21.55;;;2.00;99.90;;;;;;4856993;29;20301;-39
2023/11/27 04:38:24;;;;;;;21.83;19.73;;;1.90;99.90;;;;;;4865556;29;20663;-38
2023/11/27 04:40:50;;;;;;;23.13;20.83;;;2.00;99.90;;;;;;4865969;29;21085;-38
2023/11/27 04:43:16;;;;;;;21.37;19.43;;;2.00;99.90;;;;;;4862258;29;20786;-39
2023/11/27 04:45:42;;;;;;;22.10;19.90;;;2.00;99.90;;;;;;4867670;29;20226;-39
2023/11/27 04:48:08;;;;;;;22.13;19.83;;;2.00;99.90;;;;;;4866337;29;20211;-38
2023/11/27 04:50:33;;;;;;;22.80;20.60;;;1.90;99.90;;;;;;4859700;29;20190;-41
2023/11/27 04:52:59;;;;;;;22.80;20.30;;;1.90;99.90;;;;;;4855817;29;20204;-39
2023/11/27 04:55:25;;;;;;;23.23;21.00;;;1.90;99.90;;;;;;4863781;29;20211;-40
2023/11/27 04:57:50;;;;;;;22.67;20.17;;;1.90;99.90;;;;;;4867659;29;20674;-39
2023/11/27 05:00:16;;;;;;;23.03;20.83;;;1.90;99.90;;;;;;4865295;29;20205;-39
2023/11/27 05:02:45;;;;;;;22.40;20.07;;;2.00;99.90;;;;;;4867587;29;20278;-39
2023/11/27 05:05:14;;;;;;;21.95;19.95;;;2.00;99.90;;;;;;4847102;29;20196;-40
2023/11/27 05:07:40;;;;;;;23.20;21.10;;;2.00;99.90;;;;;;4867790;29;20199;-39
2023/11/27 05:10:07;;;;;;;22.20;20.00;;;2.10;99.90;;;;;;4866172;29;20189;-40
2023/11/27 05:12:33;;;;;;;23.23;20.92;;;2.10;99.90;;;;;;4866665;29;20192;-39
2023/11/27 05:14:58;;;;;;;23.57;21.17;;;2.10;99.90;;;;;;4867969;29;20243;-38
2023/11/27 05:17:24;;;;;;;22.50;20.17;;;2.10;99.90;;;;;;4861984;29;20259;-39
2023/11/27 05:19:49;;;;;;;21.40;19.37;;;2.00;99.90;;;;;;4867327;29;20202;-38
2023/11/27 05:22:15;;;;;;;22.50;20.30;;;2.10;99.90;;;;;;4861281;29;20236;-39
2023/11/27 05:24:41;;;;;;;23.47;21.17;;;2.10;99.90;;;;;;4863698;29;20204;-39
2023/11/27 05:27:06;;;;;;;20.13;18.20;;;2.10;99.90;;;;;;4865212;29;20676;-38
2023/11/27 05:29:32;;;;;;;23.63;21.17;;;2.00;99.90;;;;;;4858659;29;20213;-40
2023/11/27 05:31:57;;;;;;;23.10;20.50;;;2.00;99.90;;;;;;4852301;29;20201;-39
2023/11/27 05:34:23;;;;;;;22.60;20.50;;;2.00;99.90;;;;;;4852537;29;20590;-39
2023/11/27 05:36:48;;;;;;;21.27;19.27;;;1.90;99.90;;;;;;4840198;29;20231;-39
2023/11/27 05:39:15;;;;;;;22.40;20.27;;;2.00;99.90;;;;;;4861946;29;20189;-39
2023/11/27 05:41:41;;;;;;;20.83;19.02;;;2.00;99.90;;;;;;4854817;29;20193;-39
2023/11/27 05:44:07;;;;;;;21.07;19.10;;;2.00;99.90;;;;;;4861096;29;20195;-40
2023/11/27 05:46:34;;;;;;;20.70;18.80;;;2.00;99.90;;;;;;4858268;29;20446;-38
2023/11/27 05:49:00;;;;;;;22.50;20.17;;;2.10;99.90;;;;;;4867488;29;20192;-38
2023/11/27 05:51:26;;;;;;;20.13;18.20;;;2.10;99.90;;;;;;4861723;29;20635;-38
2023/11/27 05:53:55;;;;;;;19.90;17.90;;;2.10;99.90;;;;;;4858976;29;20229;-38
2023/11/27 05:56:21;;;;;;;23.70;19.88;;;2.10;99.90;;;;;;4861464;29;20292;-39
2023/11/27 05:58:47;;;;;;;22.67;20.40;;;2.10;99.90;;;;;;4865888;29;20272;-38
2023/11/27 06:01:12;;;;;;;22.43;20.40;;;2.20;99.90;;;;;;4852528;29;20550;-38
2023/11/27 06:03:38;;;;;;;22.50;20.40;;;2.20;99.90;;;;;;4853508;29;20188;-39
2023/11/27 06:06:07;;;;;;;22.90;20.70;;;2.10;99.90;;;;;;4865674;29;20185;-40
2023/11/27 06:08:33;;;;;;;20.90;18.95;;;2.00;99.90;;;;;;4866212;29;20200;-39
2023/11/27 06:11:03;;;;;;;21.43;19.23;;;2.00;99.90;;;;;;4867224;29;20260;-39
2023/11/27 06:13:29;;;;;;;24.38;21.90;;;2.00;99.90;;;;;;4866936;29;21233;-39
2023/11/27 06:15:55;;;;;;;22.75;19.85;;;2.10;99.90;;;;;;4866238;29;20719;-39
2023/11/27 06:18:21;;;;;;;21.17;19.13;;;2.10;99.90;;;;;;4860941;29;20204;-40
2023/11/27 06:20:48;;;;;;;23.13;20.75;;;2.10;99.90;;;;;;4865975;29;20252;-38
2023/11/27 06:23:14;;;;;;;22.00;19.80;;;2.10;99.90;;;;;;4861210;29;20239;-40
2023/11/27 06:25:39;;;;;;;22.03;19.97;;;2.00;99.90;;;;;;4856913;29;21660;-39
2023/11/27 06:28:05;;;;;;;21.43;19.43;;;2.00;99.90;;;;;;4851537;29;20217;-39
2023/11/27 06:30:31;;;;;;;21.03;19.00;;;2.10;99.90;;;;;;4866713;29;20432;-38
2023/11/27 06:32:56;;;;;;;20.63;18.67;;;2.10;99.90;;;;;;4856516;29;20951;-39
2023/11/27 06:35:22;;;;;;;20.03;18.17;;;2.20;99.90;;;;;;4848882;29;20216;-39
2023/11/27 06:37:47;;;;;;;19.00;17.40;;;2.20;99.90;;;;;;4862225;29;20273;-39
2023/11/27 06:40:16;;;;;;;20.57;18.67;;;2.20;99.90;;;;;;4866303;29;20192;-39
2023/11/27 06:42:42;;;;;;;20.30;18.13;;;2.20;99.90;;;;;;4863234;29;20556;-38
2023/11/27 06:45:08;;;;;;;21.07;19.17;;;2.20;99.90;;;;;;4864044;29;20191;-38
2023/11/27 06:47:34;;;;;;;20.00;18.25;;;2.10;99.90;;;;;;4864559;29;20424;-39
2023/11/27 06:49:59;;;;;;;19.67;17.67;;;2.10;99.90;;;;;;4861137;29;20189;-38
2023/11/27 06:52:25;;;;;;;19.53;17.73;;;2.10;99.90;;;;;;4848550;29;20200;-38
2023/11/27 06:54:51;;;;;;;21.23;19.40;;;2.20;99.90;;;;;;4853950;29;20545;-38
2023/11/27 06:57:17;;;;;;;18.83;17.13;;;2.20;99.90;;;;;;4833401;29;20212;-39
2023/11/27 06:59:42;;;;;;;19.77;17.80;;;2.10;99.90;;;;;;4856811;29;20180;-40
2023/11/27 07:02:08;;;;;;;19.33;17.43;;;2.20;99.90;;;;;;4865668;29;20457;-39
2023/11/27 07:04:34;;;;;;;20.47;18.47;;;2.20;99.90;;;;;;4861973;29;20707;-40
2023/11/27 07:06:59;;;;;;;22.40;20.10;;;2.30;99.90;;;;;;4856120;29;20187;-39
2023/11/27 07:09:27;;;;;;;19.47;17.87;;;2.30;99.90;;;;;;4853197;29;20188;-39
2023/11/27 07:11:53;;;;;;;19.02;17.42;;;2.30;99.90;;;;;;4855510;29;20185;-38
2023/11/27 07:14:18;;;;;;;19.80;17.90;;;2.30;99.90;;;;;;4853169;29;21318;-38
2023/11/27 07:16:44;;;;;;;19.73;18.03;;;2.30;99.90;;;;;;4856808;29;20422;-38
2023/11/27 07:19:12;;;;;;;18.80;17.27;;;2.40;99.90;;;;;;4856741;29;20292;-39
2023/11/27 07:21:38;;;;;;;20.85;18.85;;;2.50;99.90;;;;;;4855163;29;20192;-39
2023/11/27 07:24:04;;;;;;;19.40;17.70;;;2.40;99.90;;;;;;4853494;29;20330;-39
2023/11/27 07:26:30;;;;;;;19.43;17.87;;;2.50;99.90;;;;;;4853131;29;21097;-39
2023/11/27 07:28:57;;;;;;;19.80;17.88;;;2.40;99.90;;;;;;4856996;29;20271;-39
2023/11/27 07:31:27;;;;;;;18.75;16.95;;;2.40;99.90;;;;;;4850740;29;20213;-38
2023/11/27 07:33:56;;;;;;;19.17;17.65;;;2.50;99.90;;;;;;4849421;29;20193;-38
2023/11/27 07:36:22;;;;;;;19.45;18.00;;;2.50;99.90;;;;;;4850523;29;20204;-39
2023/11/27 07:38:48;;;;;;;20.25;18.60;;;2.50;99.90;;;;;;4851634;29;20200;-39
2023/11/27 07:41:14;;;;;;;19.77;18.17;;;2.50;99.90;;;;;;4852412;29;20289;-56
2023/11/27 07:43:40;;;;;;;19.88;18.25;;;2.50;99.90;;;;;;4855406;29;20437;-54
2023/11/27 07:46:10;;;;;;;19.83;18.23;;;2.60;99.90;;;;;;4856012;29;20855;-53
2023/11/27 07:48:39;;;;;;;21.48;19.55;;;2.60;99.90;;;;;;4853622;29;20518;-51
2023/11/27 07:51:06;;;;;;;21.23;19.17;;;2.60;99.90;;;;;;4851262;29;20273;-50
2023/11/27 07:53:32;;;;;;;19.88;18.00;;;2.60;99.90;;;;;;4853753;29;20188;-47
2023/11/27 07:55:59;;;;;;;20.53;18.73;;;2.70;99.90;;;;;;4867245;29;20909;-52
2023/11/27 07:58:25;;;;;;;19.40;17.65;;;2.70;99.90;;;;;;4845698;29;20212;-52
2023/11/27 08:00:50;;;;;;;19.60;17.70;;;2.80;99.90;;;;;;4863258;29;20191;-54
2023/11/27 08:03:16;;;;;;;19.50;17.90;;;2.90;99.90;;;;;;4833748;29;21334;-55
2023/11/27 08:05:43;;;;;;;19.60;18.10;;;2.90;99.90;;;;;;4850714;29;20197;-52
2023/11/27 08:08:08;;;;;;;21.08;19.02;;;2.90;99.90;;;;;;4850831;29;20197;-56
2023/11/27 08:10:36;;;;;;;20.10;18.40;;;2.90;99.90;;;;;;4850930;29;20202;-52
2023/11/27 08:13:02;;;;;;;19.58;17.88;;;3.00;99.90;;;;;;4850222;29;20426;-51
2023/11/27 08:15:27;;;;;;;19.05;17.45;;;3.10;99.90;;;;;;4851328;29;20261;-53
2023/11/27 08:17:56;;;;;;;19.07;17.47;;;3.00;99.90;;;;;;4850381;29;21080;-52
2023/11/27 08:20:28;;;;;;;19.92;18.13;;;3.10;99.90;;;;;;4850874;29;20182;-53
2023/11/27 08:22:59;;;;;;;19.63;17.98;;;3.10;99.90;;;;;;4850012;29;20234;-51
2023/11/27 08:25:26;;;;;;;19.05;17.40;;;3.10;99.90;;;;;;4851070;29;20186;-54
2023/11/27 08:27:52;;;;;;;20.30;18.50;;;3.10;99.90;;;;;;4850595;29;20183;-55
2023/11/27 08:30:19;;;;;;;20.02;18.40;;;3.10;99.90;;;;;;4850699;29;20629;-56
2023/11/27 08:32:51;;;;;;;20.27;18.50;;;3.10;99.90;;;;;;4852145;29;20201;-53
2023/11/27 08:35:17;;;;;;;20.90;19.13;;;3.10;99.90;;;;;;4852003;29;20210;-53
2023/11/27 08:37:43;;;;;;;19.33;17.73;;;3.10;99.90;;;;;;4851747;29;20213;-55
2023/11/27 08:40:12;;;;;;;19.58;17.88;;;3.10;99.90;;;;;;4854350;29;20225;-54
2023/11/27 08:42:38;;;;;;;19.58;17.98;;;3.10;99.90;;;;;;4851539;29;20180;-50
2023/11/27 08:45:16;;;;;;;20.38;18.38;;;3.10;99.90;;;;;;4851959;29;20194;-53
2023/11/27 08:47:44;;;;;;;19.40;17.70;;;3.20;99.90;;;;;;4853476;29;20196;-53
2023/11/27 08:50:13;;;;;;;20.40;18.70;;;3.20;99.90;;;;;;4852999;29;20219;-55
2023/11/27 08:52:41;;;;;;;19.98;18.13;;;3.20;99.90;;;;;;4852017;29;20252;-50
2023/11/27 08:55:09;;;;;;;20.35;18.55;;;3.30;99.90;;;;;;4853769;29;20216;-54
2023/11/27 08:57:34;;;;;;;20.75;18.95;;;3.30;99.90;;;;;;4852536;29;20222;-55
2023/11/27 09:00:10;;;;;;;19.73;18.07;;;3.40;99.90;;;;;;4852781;29;20711;-52
2023/11/27 09:02:38;;;;;;;19.45;17.85;;;3.40;99.90;;;;;;4850315;29;20191;-52
2023/11/27 09:05:07;;;;;;;20.10;18.30;;;3.40;99.90;;;;;;4852029;29;20181;-54
2023/11/27 09:07:33;;;;;;;20.38;18.52;;;3.40;99.90;;;;;;4850491;29;20195;-57
2023/11/27 09:09:59;;;;;;;20.42;18.73;;;3.50;99.90;;;;;;4852254;29;20195;-54
2023/11/27 09:12:25;;;;;;;19.52;17.85;;;3.50;99.90;;;;;;4857631;29;20202;-51
2023/11/27 09:14:51;;;;;;;19.10;17.60;;;3.60;99.90;;;;;;4851878;29;20203;-54
2023/11/27 09:17:17;;;;;;;20.58;18.77;;;3.70;99.90;;;;;;4849130;29;21014;-57
2023/11/27 09:19:44;;;;;;;21.07;19.27;;;3.80;99.90;;;;;;4851507;29;20194;-56
2023/11/27 09:22:09;;;;;;;20.98;18.88;;;3.80;99.90;;;;;;4854081;29;20239;-53
2023/11/27 09:24:38;;;;;;;20.10;18.30;;;3.90;99.90;;;;;;4852355;29;20198;-54
2023/11/27 09:27:04;;;;;;;20.25;18.45;;;4.00;99.90;;;;;;4852841;29;20182;-54
2023/11/27 09:29:30;;;;;;;19.40;17.67;;;4.10;99.90;;;;;;4856530;29;20754;-52
2023/11/27 09:31:56;;;;;;;19.13;17.40;;;4.30;99.90;;;;;;4852464;29;20182;-52
2023/11/27 09:34:21;;;;;;;18.83;17.13;;;4.40;99.90;;;;;;4852927;29;20652;-55
2023/11/27 09:36:47;;;;;;;20.00;18.30;;;4.50;99.90;;;;;;4846889;29;21704;-54
2023/11/27 09:39:13;;;;;;;19.53;17.97;;;4.50;99.90;;;;;;4838133;29;20280;-51
2023/11/27 09:41:39;;;;;;;20.65;19.05;;;4.50;99.90;;;;;;4856429;29;20241;-50
2023/11/27 09:44:05;;;;;;;19.57;18.00;;;4.60;99.90;;;;;;4865138;29;20196;-53
2023/11/27 09:46:35;;;;;;;19.80;18.10;;;4.50;99.90;;;;;;4854056;29;20189;-55
2023/11/27 09:49:04;;;;;;;19.55;17.95;;;4.30;99.90;;;;;;4849661;29;20257;-56
2023/11/27 09:51:33;;;;;;;20.20;18.52;;;4.20;99.90;;;;;;4821614;29;21120;-54
2023/11/27 09:54:03;;;;;;;21.10;19.25;;;4.20;99.90;;;;;;4865682;29;20184;-55
2023/11/27 09:56:32;;;;;;;21.95;20.05;;;4.20;99.90;;;;;;4862842;29;20255;-55
2023/11/27 09:59:00;;;;;;;21.52;19.63;;;4.20;99.90;;;;;;4861394;29;20293;-51
2023/11/27 10:01:30;;;;;;;20.45;18.50;;;4.10;99.90;;;;;;4864962;29;20191;-52
2023/11/27 10:04:01;;;;;;;22.48;20.58;;;4.10;99.90;;;;;;4854233;29;20183;-50
2023/11/27 10:06:33;;;;;;;22.63;20.45;;;4.00;99.90;;;;;;4861249;29;20194;-53
2023/11/27 10:09:07;;;;;;;24.50;21.63;;;3.90;99.90;;;;;;4867072;29;20177;-55
2023/11/27 10:11:34;;;;;;;23.50;21.48;;;3.90;99.90;;;;;;4855130;29;20198;-51
2023/11/27 10:14:05;;;;;;;22.08;20.23;;;3.90;99.90;;;;;;4867217;29;20201;-55
2023/11/27 10:16:35;;;;;;;22.92;20.63;;;3.90;99.90;;;;;;4851285;29;20296;-52
2023/11/27 10:19:08;;;;;;;23.48;21.10;;;4.10;99.90;;;;;;4867240;29;20221;-54
2023/11/27 10:21:34;;;;;;;22.73;20.70;;;4.10;99.90;;;;;;4856529;29;20279;-55
2023/11/27 10:24:01;;;;;;;23.27;21.02;;;4.20;99.90;;;;;;4855863;29;20317;-56
2023/11/27 10:26:33;;;;;;;22.50;20.50;;;4.20;99.90;;;;;;4850381;29;20254;-54
2023/11/27 10:28:59;;;;;;;21.88;19.80;;;4.30;99.90;;;;;;4848564;29;20674;-53
2023/11/27 10:31:26;;;;;;;23.73;21.60;;;4.30;99.90;;;;;;4849164;29;20192;-53
2023/11/27 10:33:53;;;;;;;24.60;21.95;;;4.40;99.90;;;;;;4848820;29;20305;-53
2023/11/27 10:36:23;;;;;;;23.60;21.55;;;4.40;99.90;;;;;;4856478;29;20231;-56
2023/11/27 10:39:14;;;;;;;23.30;21.08;;;4.50;99.90;;;;;;4856905;29;20226;-52
2023/11/27 10:41:45;;;;;;;22.35;20.17;;;4.60;99.90;;;;;;4851062;29;20258;-53
2023/11/27 10:44:15;;;;;;;22.77;20.48;;;4.60;99.90;;;;;;4850258;29;20183;-54
2023/11/27 10:46:42;;;;;;;21.63;19.50;;;4.60;99.90;;;;;;4832823;29;20324;-51
2023/11/27 10:49:09;;;;;;;21.40;19.40;;;4.60;99.90;;;;;;4860575;29;20644;-54
2023/11/27 10:51:36;;;;;;;20.42;18.52;;;4.60;99.90;;;;;;4865375;29;20207;-53
2023/11/27 16:31:48;;;;;;;21.15;19.05;;;3.50;99.90;;;;;;5500952;23;20276;-38
2023/11/27 16:34:14;;;;;;;22.13;19.97;;;3.50;99.90;;;;;;4882604;29;20232;-38
2023/11/27 16:36:41;;;;;;;21.43;19.20;;;3.50;99.90;;;;;;4887269;29;20413;-38
2023/11/27 16:39:12;;;;;;;22.88;18.67;;;3.50;99.90;;;;;;4881957;29;20985;-39
2023/11/27 16:41:37;;;;;;;22.95;20.33;;;3.50;99.90;;;;;;4879832;29;20186;-38
2023/11/27 16:44:04;;;;;;;21.87;19.67;;;3.50;99.90;;;;;;4877205;29;20248;-39
2023/11/27 16:46:30;;;;;;;21.30;19.10;;;3.50;99.90;;;;;;4888201;29;20192;-39
2023/11/27 16:48:58;;;;;;;21.02;18.85;;;3.50;99.90;;;;;;4870576;29;20307;-40
2023/11/27 16:51:24;;;;;;;21.83;19.60;;;3.50;99.90;;;;;;4868646;29;20247;-38
2023/11/27 16:53:49;;;;;;;20.63;18.50;;;3.50;99.90;;;;;;4876997;29;20203;-39
2023/11/27 16:56:15;;;;;;;20.83;18.73;;;3.60;99.90;;;;;;4888999;29;20196;-40
2023/11/27 16:58:41;;;;;;;20.33;18.37;;;3.60;99.90;;;;;;4876418;29;20198;-40
2023/11/27 17:01:06;;;;;;;22.43;20.13;;;3.60;99.90;;;;;;4884929;29;20450;-39
2023/11/27 17:03:32;;;;;;;21.77;19.87;;;3.60;99.90;;;;;;4883112;29;20605;-39
2023/11/27 17:05:59;;;;;;;23.37;19.60;;;3.60;99.90;;;;;;4887712;29;20270;-38
2023/11/27 17:08:29;;;;;;;24.42;20.30;;;3.60;99.90;;;;;;4890473;29;20957;-40
2023/11/27 17:10:55;;;;;;;20.92;18.83;;;3.60;99.90;;;;;;4889334;29;20217;-39
2023/11/27 17:13:21;;;;;;;21.83;19.60;;;3.60;99.90;;;;;;4889924;29;20225;-40
2023/11/27 17:15:48;;;;;;;20.42;18.30;;;3.60;99.90;;;;;;4886564;29;20436;-39
2023/11/27 17:18:14;;;;;;;21.02;19.08;;;3.60;99.90;;;;;;4886141;29;20205;-40
2023/11/27 17:20:41;;;;;;;21.20;18.98;;;3.70;99.90;;;;;;4878739;29;20201;-40
2023/11/27 17:23:08;;;;;;;20.35;18.45;;;3.70;99.90;;;;;;4874757;29;20190;-41
2023/11/27 17:25:40;;;;;;;21.30;19.35;;;3.70;99.90;;;;;;4877184;29;20199;-40
2023/11/27 17:28:09;;;;;;;21.30;19.15;;;3.70;99.90;;;;;;4876770;29;20322;-40
2023/11/27 17:30:36;;;;;;;19.55;17.75;;;3.70;99.90;;;;;;4881322;29;20277;-40
2023/11/27 17:33:05;;;;;;;21.38;19.20;;;3.70;99.90;;;;;;4882344;29;20233;-40
2023/11/27 17:35:32;;;;;;;21.45;19.25;;;3.70;99.90;;;;;;4891660;29;20273;-41
2023/11/27 17:37:57;;;;;;;22.38;20.15;;;3.70;99.90;;;;;;4868724;29;20213;-40
2023/11/27 17:40:23;;;;;;;23.97;19.77;;;3.70;99.90;;;;;;4893851;29;20193;-40
2023/11/27 17:42:49;;;;;;;20.47;18.30;;;3.70;99.90;;;;;;4892179;29;20423;-39
2023/11/27 17:45:16;;;;;;;20.97;19.00;;;3.70;99.90;;;;;;4885959;29;20189;-40
2023/11/27 17:47:46;;;;;;;20.63;18.73;;;3.70;99.90;;;;;;4886714;29;20702;-38
2023/11/27 17:50:15;;;;;;;20.92;18.98;;;3.70;99.90;;;;;;4871568;29;20181;-39
2023/11/27 17:52:42;;;;;;;23.00;19.35;;;3.70;99.90;;;;;;4892516;29;20188;-39
2023/11/27 17:55:09;;;;;;;21.45;19.58;;;3.70;99.90;;;;;;4894628;29;20244;-39
2023/11/27 17:57:36;;;;;;;29.02;26.02;;;3.70;99.90;;;;;;4893768;29;20221;-39
2023/11/27 18:00:06;;;;;;;20.90;19.00;;;3.60;99.90;;;;;;4865815;29;20194;-38
2023/11/27 18:02:31;;;;;;;21.02;19.23;;;3.60;99.90;;;;;;4894141;29;20205;-38
2023/11/27 18:04:57;;;;;;;20.67;18.80;;;3.60;99.90;;;;;;4890714;29;20190;-40
2023/11/27 18:07:23;;;;;;;21.20;19.37;;;3.60;99.90;;;;;;4877180;29;20178;-39
2023/11/27 18:09:48;;;;;;;21.83;18.77;;;3.70;99.90;;;;;;4858631;29;20661;-39